createdAt,value
2018-07-08T00:00:33.049Z,20.05
2018-07-08T00:03:03.046Z,20.06
2018-07-08T00:05:32.515Z,19.99
2018-07-08T00:08:02.104Z,20.02
2018-07-08T00:10:31.599Z,19.95
2018-07-08T00:13:01.008Z,19.92
2018-07-08T00:15:30.507Z,19.90
2018-07-08T00:17:59.916Z,19.87
2018-07-08T00:20:29.356Z,19.89
2018-07-08T00:22:59.068Z,19.85
2018-07-08T00:25:28.964Z,19.89
2018-07-08T00:27:58.439Z,19.66
2018-07-08T00:30:28.552Z,19.83
2018-07-08T00:32:58.134Z,19.90
2018-07-08T00:35:27.845Z,19.85
2018-07-08T00:37:57.878Z,19.88
2018-07-08T00:40:27.497Z,19.91
2018-07-08T00:42:58.266Z,19.93
2018-07-08T00:45:29.400Z,19.93
2018-07-08T00:48:00.473Z,19.92
2018-07-08T00:50:30.100Z,19.87
2018-07-08T00:53:01.193Z,19.84
2018-07-08T00:55:39.997Z,19.90
2018-07-08T00:58:11.661Z,19.87
2018-07-08T01:00:43.298Z,19.85
2018-07-08T01:03:15.769Z,19.85
2018-07-08T01:05:46.779Z,19.81
2018-07-08T01:08:18.006Z,19.79
2018-07-08T01:10:50.615Z,19.85
2018-07-08T01:13:21.511Z,19.86
2018-07-08T01:15:51.000Z,19.76
2018-07-08T01:18:21.788Z,19.79
2018-07-08T01:20:52.846Z,19.72
2018-07-08T01:23:24.551Z,19.74
2018-07-08T01:26:05.369Z,19.67
2018-07-08T01:28:37.073Z,19.63
2018-07-08T01:31:08.650Z,19.61
2018-07-08T01:33:44.285Z,19.64
2018-07-08T01:36:13.795Z,19.51
2018-07-08T01:38:47.715Z,19.49
2018-07-08T01:41:18.088Z,19.45
2018-07-08T01:43:48.433Z,19.45
2018-07-08T01:46:19.141Z,19.41
2018-07-08T01:48:48.547Z,19.42
2018-07-08T01:51:17.991Z,19.39
2018-07-08T01:53:49.148Z,19.37
2018-07-08T01:56:19.503Z,19.35
2018-07-08T01:58:48.953Z,19.39
2018-07-08T02:01:21.797Z,19.35
2018-07-08T02:03:54.332Z,19.18
2018-07-08T02:06:23.880Z,18.98
2018-07-08T02:08:53.605Z,18.87
2018-07-08T02:11:24.058Z,18.74
2018-07-08T02:13:55.228Z,18.69
2018-07-08T02:16:27.290Z,18.64
2018-07-08T02:18:56.716Z,18.57
2018-07-08T02:21:26.181Z,18.49
2018-07-08T02:23:55.626Z,18.44
2018-07-08T02:26:25.904Z,18.41
2018-07-08T02:28:55.946Z,18.36
2018-07-08T02:31:25.401Z,18.31
2018-07-08T02:33:54.788Z,18.26
2018-07-08T02:36:24.243Z,18.23
2018-07-08T02:38:53.682Z,18.18
2018-07-08T02:41:23.491Z,18.14
2018-07-08T02:43:53.494Z,18.13
2018-07-08T02:46:22.936Z,18.16
2018-07-08T02:48:53.511Z,18.19
2018-07-08T02:51:22.944Z,18.17
2018-07-08T02:53:52.596Z,18.08
2018-07-08T02:56:22.010Z,18.03
2018-07-08T02:58:51.419Z,17.99
2018-07-08T03:01:20.858Z,17.94
2018-07-08T03:03:51.233Z,17.90
2018-07-08T03:06:21.191Z,17.92
2018-07-08T03:08:50.679Z,18.04
2018-07-08T03:11:20.139Z,18.20
2018-07-08T03:13:49.746Z,18.33
2018-07-08T03:16:19.202Z,18.33
2018-07-08T03:18:48.637Z,18.34
2018-07-08T03:21:18.049Z,18.35
2018-07-08T03:23:47.441Z,18.27
2018-07-08T03:26:16.912Z,18.22
2018-07-08T03:28:46.433Z,18.18
2018-07-08T03:31:18.172Z,18.12
2018-07-08T03:33:47.640Z,18.08
2018-07-08T03:36:17.086Z,18.05
2018-07-08T03:38:46.584Z,18.04
2018-07-08T03:41:15.927Z,18.04
2018-07-08T03:43:45.659Z,18.04
2018-07-08T03:46:15.968Z,18.07
2018-07-08T03:48:45.353Z,18.05
2018-07-08T03:51:14.773Z,18.05
2018-07-08T03:53:44.172Z,18.06
2018-07-08T03:56:13.564Z,18.09
2018-07-08T03:58:43.408Z,18.14
2018-07-08T04:01:12.860Z,18.20
2018-07-08T04:03:42.345Z,18.24
2018-07-08T04:06:11.785Z,18.27
2018-07-08T04:08:41.248Z,18.31
2018-07-08T04:11:11.099Z,18.34
2018-07-08T04:13:40.553Z,18.38
2018-07-08T04:16:10.776Z,18.41
2018-07-08T04:18:40.612Z,18.45
2018-07-08T04:21:10.035Z,18.53
2018-07-08T04:23:39.406Z,18.60
2018-07-08T04:26:09.529Z,18.64
2018-07-08T04:28:38.967Z,18.71
2018-07-08T04:31:09.353Z,18.73
2018-07-08T04:33:38.757Z,18.77
2018-07-08T04:36:08.154Z,18.82
2018-07-08T04:38:37.871Z,18.87
2018-07-08T04:41:07.261Z,18.92
2018-07-08T04:43:37.395Z,18.96
2018-07-08T04:46:07.574Z,18.97
2018-07-08T04:48:36.953Z,19.10
2018-07-08T04:51:06.487Z,19.16
2018-07-08T04:53:35.866Z,19.25
2018-07-08T04:56:05.336Z,19.33
2018-07-08T04:58:34.825Z,19.34
2018-07-08T05:01:04.496Z,19.39
2018-07-08T05:03:34.240Z,19.40
2018-07-08T05:06:03.453Z,19.43
2018-07-08T05:08:32.907Z,19.47
2018-07-08T05:11:02.427Z,19.51
2018-07-08T05:13:31.994Z,19.58
2018-07-08T05:16:01.415Z,19.57
2018-07-08T05:18:30.827Z,19.62
2018-07-08T05:21:00.377Z,19.67
2018-07-08T05:23:29.784Z,19.66
2018-07-08T05:25:59.202Z,19.67
2018-07-08T05:28:28.594Z,19.67
2018-07-08T05:30:57.962Z,19.61
2018-07-08T05:33:27.409Z,19.63
2018-07-08T05:35:56.860Z,19.61
2018-07-08T05:38:26.393Z,19.64
2018-07-08T05:40:55.792Z,19.65
2018-07-08T05:43:25.750Z,19.67
2018-07-08T05:45:55.127Z,19.74
2018-07-08T05:48:24.817Z,19.80
2018-07-08T05:50:57.429Z,19.94
2018-07-08T05:53:26.788Z,20.05
2018-07-08T05:55:56.174Z,20.25
2018-07-08T05:58:25.686Z,20.38
2018-07-08T06:00:55.056Z,20.42
2018-07-08T06:03:25.480Z,20.39
2018-07-08T06:05:54.869Z,20.42
2018-07-08T06:08:24.298Z,20.51
2018-07-08T06:10:54.077Z,20.51
2018-07-08T06:13:23.459Z,20.60
2018-07-08T06:15:53.244Z,20.68
2018-07-08T06:18:23.126Z,20.72
2018-07-08T06:20:52.549Z,20.76
2018-07-08T06:23:22.566Z,20.71
2018-07-08T06:25:52.066Z,20.67
2018-07-08T06:28:21.625Z,20.66
2018-07-08T06:30:51.313Z,20.63
2018-07-08T06:33:20.755Z,20.67
2018-07-08T06:35:50.232Z,20.76
2018-07-08T06:38:19.649Z,20.80
2018-07-08T06:40:49.086Z,20.80
2018-07-08T06:43:18.436Z,20.90
2018-07-08T06:45:47.815Z,20.96
2018-07-08T06:48:17.538Z,20.94
2018-07-08T06:50:47.635Z,20.85
2018-07-08T06:53:17.576Z,20.87
2018-07-08T06:55:46.983Z,20.83
2018-07-08T06:58:16.482Z,20.82
2018-07-08T07:00:46.318Z,20.82
2018-07-08T07:03:15.742Z,20.76
2018-07-08T07:05:45.224Z,20.87
2018-07-08T07:08:15.346Z,20.88
2018-07-08T07:13:28.796Z,20.86
2018-07-08T07:15:58.333Z,20.97
2018-07-08T07:18:27.779Z,21.18
2018-07-08T07:20:57.215Z,21.29
2018-07-08T07:23:27.575Z,21.36
2018-07-08T07:25:57.005Z,21.61
2018-07-08T07:28:27.416Z,21.70
2018-07-08T07:30:56.992Z,21.88
2018-07-08T07:33:27.403Z,21.73
2018-07-08T07:35:56.851Z,21.50
2018-07-08T07:38:26.681Z,21.77
2018-07-08T07:40:56.196Z,21.81
2018-07-08T07:43:27.128Z,21.93
2018-07-08T07:45:56.485Z,21.97
2018-07-08T07:48:26.587Z,21.95
2018-07-08T07:50:56.809Z,22.04
2018-07-08T07:53:26.207Z,22.06
2018-07-08T07:55:55.850Z,22.15
2018-07-08T07:58:25.294Z,21.83
2018-07-08T08:00:54.853Z,21.59
2018-07-08T08:03:24.585Z,21.65
2018-07-08T08:05:54.866Z,21.63
2018-07-08T08:08:24.289Z,21.51
2018-07-08T08:10:54.051Z,21.32
2018-07-08T08:13:23.544Z,21.46
2018-07-08T08:15:53.031Z,21.48
2018-07-08T08:18:22.497Z,21.09
2018-07-08T08:20:51.931Z,21.07
2018-07-08T08:23:22.181Z,21.18
2018-07-08T08:25:51.531Z,20.88
2018-07-08T08:28:20.979Z,21.06
2018-07-08T08:30:50.357Z,21.23
2018-07-08T08:33:21.346Z,20.75
2018-07-08T08:35:50.849Z,20.38
2018-07-08T08:38:20.296Z,20.44
2018-07-08T08:40:49.737Z,20.30
2018-07-08T08:43:19.145Z,20.29
2018-07-08T08:45:48.566Z,20.35
2018-07-08T08:48:17.996Z,20.38
2018-07-08T08:50:47.400Z,20.52
2018-07-08T08:53:16.744Z,18.34
2018-07-08T08:55:46.144Z,20.79
2018-07-08T08:58:15.849Z,20.87
2018-07-08T09:00:46.877Z,20.94
2018-07-08T09:03:16.289Z,21.06
2018-07-08T09:05:46.272Z,21.02
2018-07-08T09:08:15.644Z,21.15
2018-07-08T09:10:45.114Z,21.32
2018-07-08T09:13:19.115Z,21.35
2018-07-08T09:15:48.655Z,21.50
2018-07-08T09:18:18.004Z,21.70
2018-07-08T09:20:47.769Z,21.73
2018-07-08T09:23:17.232Z,22.04
2018-07-08T09:25:46.641Z,22.37
2018-07-08T09:28:16.082Z,22.33
2018-07-08T09:30:45.528Z,22.40
2018-07-08T09:33:15.031Z,22.61
2018-07-08T09:35:44.410Z,22.51
2018-07-08T09:38:15.178Z,22.48
2018-07-08T09:40:45.058Z,22.23
2018-07-08T09:43:14.495Z,22.19
2018-07-08T09:45:44.017Z,22.30
2018-07-08T09:48:13.582Z,22.27
2018-07-08T09:50:43.118Z,22.58
2018-07-08T09:56:12.245Z,22.66
2018-07-08T09:58:41.592Z,22.55
2018-07-08T10:01:11.106Z,22.67
2018-07-08T10:03:40.912Z,22.91
2018-07-08T10:06:10.470Z,22.83
2018-07-08T10:08:41.914Z,22.99
2018-07-08T10:11:11.553Z,23.15
2018-07-08T10:13:40.977Z,23.02
2018-07-08T10:16:10.472Z,23.11
2018-07-08T10:18:40.045Z,23.28
2018-07-08T10:21:09.635Z,23.42
2018-07-08T10:23:39.011Z,23.50
2018-07-08T10:26:08.387Z,23.54
2018-07-08T10:28:37.778Z,23.67
2018-07-08T10:31:11.702Z,23.50
2018-07-08T10:33:52.193Z,23.59
2018-07-08T10:36:21.568Z,23.57
2018-07-08T10:38:50.984Z,23.53
2018-07-08T10:41:20.543Z,23.60
2018-07-08T10:43:49.962Z,23.73
2018-07-08T10:46:19.669Z,23.61
2018-07-08T10:48:49.023Z,23.43
2018-07-08T10:51:18.797Z,23.42
2018-07-08T10:53:48.140Z,23.03
2018-07-08T10:56:17.816Z,23.46
2018-07-08T10:58:47.525Z,23.49
2018-07-08T11:01:16.933Z,23.78
2018-07-08T11:03:46.321Z,23.80
2018-07-08T11:06:15.705Z,24.03
2018-07-08T11:08:45.077Z,24.01
2018-07-08T11:11:14.420Z,24.09
2018-07-08T11:13:44.076Z,24.25
2018-07-08T11:16:13.700Z,24.36
2018-07-08T11:18:43.307Z,24.55
2018-07-08T11:21:13.106Z,24.61
2018-07-08T11:23:46.190Z,24.72
2018-07-08T11:26:15.665Z,24.79
2018-07-08T11:28:45.108Z,24.74
2018-07-08T11:31:14.536Z,24.54
2018-07-08T11:33:43.872Z,24.48
2018-07-08T11:36:13.281Z,24.43
2018-07-08T11:38:42.779Z,24.50
2018-07-08T11:41:12.106Z,24.65
2018-07-08T11:43:41.525Z,24.59
2018-07-08T11:46:10.886Z,24.63
2018-07-08T11:48:40.204Z,24.62
2018-07-08T11:51:09.530Z,24.75
2018-07-08T11:53:38.916Z,24.60
2018-07-08T11:56:08.276Z,24.76
2018-07-08T11:58:37.701Z,24.86
2018-07-08T12:01:08.451Z,24.83
2018-07-08T12:03:37.788Z,24.99
2018-07-08T12:06:07.564Z,25.16
2018-07-08T12:08:37.009Z,25.31
2018-07-08T12:11:06.546Z,25.56
2018-07-08T12:13:35.880Z,25.74
2018-07-08T12:16:05.277Z,25.54
2018-07-08T12:18:34.635Z,25.52
2018-07-08T12:21:04.288Z,25.55
2018-07-08T12:23:34.012Z,25.60
2018-07-08T12:26:03.731Z,25.58
2018-07-08T12:28:33.116Z,25.45
2018-07-08T12:31:02.490Z,25.78
2018-07-08T12:33:31.848Z,25.77
2018-07-08T12:36:01.196Z,25.66
2018-07-08T12:38:30.584Z,25.73
2018-07-08T12:40:59.936Z,25.63
2018-07-08T12:43:29.698Z,25.69
2018-07-08T12:45:59.047Z,25.58
2018-07-08T12:48:28.456Z,25.46
2018-07-08T12:50:57.851Z,25.51
2018-07-08T12:53:27.732Z,25.79
2018-07-08T12:55:57.139Z,25.95
2018-07-08T12:58:27.353Z,26.27
2018-07-08T13:00:56.727Z,26.08
2018-07-08T13:03:26.105Z,26.28
2018-07-08T13:05:55.608Z,25.95
2018-07-08T13:08:25.062Z,25.97
2018-07-08T13:10:54.489Z,25.90
2018-07-08T13:13:23.895Z,25.88
2018-07-08T13:15:54.166Z,26.01
2018-07-08T13:18:23.599Z,25.80
2018-07-08T13:20:52.975Z,25.92
2018-07-08T13:23:22.311Z,25.76
2018-07-08T13:25:51.652Z,25.65
2018-07-08T13:28:21.042Z,25.85
2018-07-08T13:30:50.411Z,25.95
2018-07-08T13:33:19.766Z,25.87
2018-07-08T13:35:49.168Z,25.75
2018-07-08T13:38:18.504Z,25.76
2018-07-08T13:40:48.196Z,25.71
2018-07-08T13:43:17.531Z,25.68
2018-07-08T13:45:47.180Z,25.65
2018-07-08T13:48:16.542Z,25.64
2018-07-08T13:50:45.977Z,25.58
2018-07-08T13:53:15.342Z,25.70
2018-07-08T13:55:44.768Z,25.72
2018-07-08T13:58:14.557Z,25.74
2018-07-08T14:00:43.911Z,25.51
2018-07-08T14:03:13.476Z,25.53
2018-07-08T14:05:42.869Z,25.57
2018-07-08T14:08:12.820Z,25.49
2018-07-08T14:10:42.169Z,25.45
2018-07-08T14:13:11.519Z,25.42
2018-07-08T14:15:40.911Z,25.31
2018-07-08T14:18:10.286Z,25.22
2018-07-08T14:20:39.806Z,25.22
2018-07-08T14:23:09.301Z,25.37
2018-07-08T14:25:39.974Z,25.59
2018-07-08T14:28:10.108Z,25.52
2018-07-08T14:30:40.181Z,25.93
2018-07-08T14:33:10.234Z,25.90
2018-07-08T14:35:39.912Z,25.97
2018-07-08T14:38:09.252Z,25.58
2018-07-08T14:40:38.761Z,25.59
2018-07-08T14:43:09.284Z,24.73
2018-07-08T14:45:39.739Z,25.76
2018-07-08T14:48:09.139Z,25.70
2018-07-08T14:50:38.493Z,25.79
2018-07-08T14:53:07.876Z,25.87
2018-07-08T14:55:37.239Z,25.80
2018-07-08T14:58:06.679Z,25.81
2018-07-08T15:00:36.040Z,25.74
2018-07-08T15:03:05.941Z,25.76
2018-07-08T15:05:35.356Z,25.81
2018-07-08T15:08:04.844Z,25.93
2018-07-08T15:10:34.192Z,25.80
2018-07-08T15:13:03.582Z,25.84
2018-07-08T15:15:32.965Z,25.70
2018-07-08T15:18:02.889Z,25.74
2018-07-08T15:20:32.225Z,25.82
2018-07-08T15:23:01.861Z,25.92
2018-07-08T15:25:31.224Z,25.82
2018-07-08T15:28:00.560Z,25.79
2018-07-08T15:30:29.909Z,25.82
2018-07-08T15:32:59.267Z,26.09
2018-07-08T15:35:28.736Z,25.94
2018-07-08T15:38:03.192Z,26.05
2018-07-08T15:40:32.696Z,25.84
2018-07-08T15:43:02.071Z,25.87
2018-07-08T15:45:32.059Z,25.88
2018-07-08T15:48:02.228Z,25.89
2018-07-08T15:50:31.607Z,25.92
2018-07-08T15:53:01.344Z,25.91
2018-07-08T15:55:31.039Z,25.84
2018-07-08T15:58:00.415Z,25.82
2018-07-08T16:00:32.274Z,25.73
2018-07-08T16:03:09.156Z,25.66
2018-07-08T16:05:38.951Z,25.66
2018-07-08T16:08:09.260Z,25.52
2018-07-08T16:10:38.653Z,25.40
2018-07-08T16:13:08.953Z,25.38
2018-07-08T16:15:38.487Z,25.38
2018-07-08T16:18:08.637Z,25.47
2018-07-08T16:20:39.243Z,25.60
2018-07-08T16:23:09.441Z,25.64
2018-07-08T16:25:40.516Z,25.70
2018-07-08T16:28:10.288Z,25.62
2018-07-08T16:30:40.358Z,25.65
2018-07-08T16:33:11.312Z,25.75
2018-07-08T16:35:47.093Z,25.84
2018-07-08T16:38:17.012Z,25.82
2018-07-08T16:40:47.137Z,25.73
2018-07-08T16:43:17.000Z,25.68
2018-07-08T16:45:47.147Z,25.62
2018-07-08T16:48:16.916Z,24.55
2018-07-08T16:50:47.836Z,25.49
2018-07-08T16:53:17.547Z,25.40
2018-07-08T16:55:47.308Z,25.37
2018-07-08T16:58:16.712Z,25.34
2018-07-08T17:00:46.461Z,25.36
2018-07-08T17:03:16.200Z,25.35
2018-07-08T17:05:45.540Z,25.37
2018-07-08T17:08:15.905Z,25.43
2018-07-08T17:10:46.311Z,25.46
2018-07-08T17:13:15.712Z,25.53
2018-07-08T17:15:46.118Z,25.59
2018-07-08T17:18:15.487Z,25.60
2018-07-08T17:20:45.915Z,25.64
2018-07-08T17:23:15.286Z,25.59
2018-07-08T17:25:44.849Z,25.59
2018-07-08T17:28:14.636Z,25.51
2018-07-08T17:30:43.978Z,25.42
2018-07-08T17:33:13.424Z,25.40
2018-07-08T17:35:42.912Z,25.33
2018-07-08T17:38:12.294Z,25.29
2018-07-08T17:40:41.659Z,25.20
2018-07-08T17:43:11.054Z,25.19
2018-07-08T17:45:40.377Z,25.19
2018-07-08T17:48:09.818Z,25.23
2018-07-08T17:50:39.154Z,25.24
2018-07-08T17:53:08.596Z,25.27
2018-07-08T17:55:37.968Z,25.27
2018-07-08T17:58:07.376Z,25.22
2018-07-08T18:00:37.111Z,25.24
2018-07-08T18:03:06.536Z,25.25
2018-07-08T18:05:35.948Z,25.25
2018-07-08T18:08:05.272Z,25.20
2018-07-08T18:10:34.704Z,25.14
2018-07-08T18:13:04.081Z,25.08
2018-07-08T18:15:33.856Z,25.09
2018-07-08T18:18:03.180Z,25.08
2018-07-08T18:20:34.540Z,24.77
2018-07-08T18:23:04.174Z,24.89
2018-07-08T18:25:33.820Z,24.95
2018-07-08T18:28:03.247Z,24.97
2018-07-08T18:30:33.753Z,24.91
2018-07-08T18:33:03.512Z,24.76
2018-07-08T18:35:32.906Z,24.68
2018-07-08T18:38:02.361Z,24.58
2018-07-08T18:40:32.599Z,24.57
2018-07-08T18:43:01.935Z,24.57
2018-07-08T18:45:31.292Z,24.53
2018-07-08T18:48:00.647Z,24.51
2018-07-08T18:50:30.864Z,24.35
2018-07-08T18:53:00.595Z,24.35
2018-07-08T18:55:29.937Z,24.32
2018-07-08T18:57:59.335Z,24.23
2018-07-08T19:00:28.666Z,24.10
2018-07-08T19:02:58.648Z,23.86
2018-07-08T19:05:27.983Z,24.03
2018-07-08T19:07:57.378Z,24.02
2018-07-08T19:10:26.808Z,23.93
2018-07-08T19:12:56.168Z,23.88
2018-07-08T19:15:25.563Z,23.91
2018-07-08T19:17:54.979Z,22.69
2018-07-08T19:20:24.472Z,23.75
2018-07-08T19:22:53.834Z,23.50
2018-07-08T19:25:23.480Z,23.65
2018-07-08T19:27:53.327Z,23.31
2018-07-08T19:30:32.680Z,23.54
2018-07-08T19:33:02.078Z,23.54
2018-07-08T19:35:31.627Z,23.53
2018-07-08T19:38:01.316Z,23.44
2018-07-08T19:40:31.004Z,23.39
2018-07-08T19:43:00.525Z,23.38
2018-07-08T19:45:30.248Z,23.34
2018-07-08T19:47:59.630Z,23.31
2018-07-08T19:50:29.307Z,23.26
2018-07-08T19:52:59.057Z,23.31
2018-07-08T19:55:28.440Z,23.26
2018-07-08T19:57:58.325Z,23.18
2018-07-08T20:00:27.680Z,23.10
2018-07-08T20:02:57.235Z,23.06
2018-07-08T20:05:26.738Z,22.90
2018-07-08T20:07:56.453Z,23.00
2018-07-08T20:10:28.607Z,22.93
2018-07-08T20:12:58.235Z,22.85
2018-07-08T20:15:27.793Z,22.73
2018-07-08T20:17:57.975Z,22.70
2018-07-08T20:20:27.571Z,22.63
2018-07-08T20:22:57.501Z,22.54
2018-07-08T20:25:26.949Z,22.49
2018-07-08T20:27:56.389Z,22.44
2018-07-08T20:30:25.752Z,22.43
2018-07-08T20:32:55.104Z,22.41
2018-07-08T20:35:24.572Z,22.40
2018-07-08T20:37:54.088Z,22.42
2018-07-08T20:40:23.733Z,22.34
2018-07-08T20:42:53.069Z,22.34
2018-07-08T20:45:23.152Z,22.27
2018-07-08T20:47:52.503Z,22.25
2018-07-08T20:50:21.899Z,22.19
2018-07-08T20:52:51.355Z,22.16
2018-07-08T20:55:21.026Z,22.15
2018-07-08T20:57:50.620Z,22.09
2018-07-08T21:00:19.963Z,21.98
2018-07-08T21:02:49.309Z,21.97
2018-07-08T21:05:18.706Z,21.84
2018-07-08T21:07:48.064Z,21.78
2018-07-08T21:10:18.340Z,21.74
2018-07-08T21:12:48.473Z,21.65
2018-07-08T21:15:18.454Z,21.64
2018-07-08T21:17:48.070Z,21.27
2018-07-08T21:20:19.015Z,21.55
2018-07-08T21:22:48.471Z,21.51
2018-07-08T21:25:18.088Z,21.47
2018-07-08T21:27:47.640Z,21.43
2018-07-08T21:30:17.013Z,21.43
2018-07-08T21:32:46.358Z,21.17
2018-07-08T21:35:17.268Z,20.61
2018-07-08T21:37:49.045Z,21.37
2018-07-08T21:40:18.393Z,21.35
2018-07-08T21:42:48.931Z,21.28
2018-07-08T21:45:18.619Z,21.23
2018-07-08T21:47:49.229Z,21.22
2018-07-08T21:50:19.791Z,21.20
2018-07-08T21:52:49.440Z,21.15
2018-07-08T21:55:18.813Z,21.08
2018-07-08T21:57:49.563Z,21.03
2018-07-08T22:00:25.680Z,21.01
2018-07-08T22:02:55.084Z,20.98
2018-07-08T22:05:25.501Z,20.99
2018-07-08T22:08:00.054Z,20.92
2018-07-08T22:10:30.733Z,20.92
2018-07-08T22:13:01.396Z,20.90
2018-07-08T22:15:30.902Z,20.88
2018-07-08T22:18:01.596Z,20.89
2018-07-08T22:20:31.028Z,20.80
2018-07-08T22:23:02.309Z,19.89
2018-07-08T22:25:31.775Z,20.68
2018-07-08T22:28:01.264Z,20.60
2018-07-08T22:30:30.636Z,20.54
2018-07-08T22:33:00.074Z,20.48
2018-07-08T22:35:29.571Z,20.45
2018-07-08T22:37:58.925Z,19.72
2018-07-08T22:40:28.269Z,20.42
2018-07-08T22:42:57.616Z,20.42
2018-07-08T22:45:27.049Z,20.41
2018-07-08T22:47:56.646Z,20.41
2018-07-08T22:50:26.070Z,20.42
2018-07-08T22:52:55.419Z,20.41
2018-07-08T22:55:25.754Z,20.35
2018-07-08T22:57:55.116Z,20.36
2018-07-08T23:00:35.580Z,20.34
2018-07-08T23:03:14.841Z,20.34
2018-07-08T23:05:44.224Z,20.31
2018-07-08T23:08:14.188Z,20.27
2018-07-08T23:10:43.812Z,20.25
2018-07-08T23:13:13.819Z,20.21
2018-07-08T23:15:43.700Z,20.19
2018-07-08T23:18:13.068Z,20.16
2018-07-08T23:20:42.459Z,20.13
2018-07-08T23:23:11.807Z,20.10
2018-07-08T23:25:41.338Z,20.03
2018-07-08T23:28:10.696Z,19.93
2018-07-08T23:30:41.003Z,19.91
2018-07-08T23:33:10.960Z,19.84
2018-07-08T23:35:40.432Z,19.80
2018-07-08T23:38:09.788Z,19.76
2018-07-08T23:40:39.724Z,19.75
2018-07-08T23:43:09.120Z,19.74
2018-07-08T23:45:38.717Z,19.72
2018-07-08T23:48:08.283Z,19.72
2018-07-08T23:50:37.997Z,19.67
2018-07-08T23:53:07.347Z,19.64
2018-07-08T23:55:37.532Z,19.61
2018-07-08T23:58:07.473Z,19.62
